sensor_id;sensor_type;location;lat;lon;timestamp;P1;durP1;ratioP1;P2;durP2;ratioP2
72949;SDS011;64868;45.710;9.590;2023-07-20T00:00:38;14.65;;;5.50;;
72949;SDS011;64868;45.710;9.590;2023-07-20T00:03:14;12.70;;;5.70;;
72949;SDS011;64868;45.710;9.590;2023-07-20T00:05:48;12.80;;;5.65;;
72949;SDS011;64868;45.710;9.590;2023-07-20T00:08:18;12.27;;;5.40;;
72949;SDS011;64868;45.710;9.590;2023-07-20T00:10:48;13.85;;;5.32;;
72949;SDS011;64868;45.710;9.590;2023-07-20T00:13:15;13.75;;;5.93;;
72949;SDS011;64868;45.710;9.590;2023-07-20T00:15:46;15.05;;;6.43;;
72949;SDS011;64868;45.710;9.590;2023-07-20T00:18:16;13.10;;;6.00;;
72949;SDS011;64868;45.710;9.590;2023-07-20T00:20:46;15.57;;;6.20;;
72949;SDS011;64868;45.710;9.590;2023-07-20T00:23:18;13.20;;;5.78;;
72949;SDS011;64868;45.710;9.590;2023-07-20T00:25:48;14.80;;;6.20;;
72949;SDS011;64868;45.710;9.590;2023-07-20T00:28:16;12.48;;;6.35;;
72949;SDS011;64868;45.710;9.590;2023-07-20T00:30:46;13.30;;;5.75;;
72949;SDS011;64868;45.710;9.590;2023-07-20T00:33:16;15.50;;;6.53;;
72949;SDS011;64868;45.710;9.590;2023-07-20T00:35:46;16.05;;;5.90;;
72949;SDS011;64868;45.710;9.590;2023-07-20T00:38:16;17.38;;;5.80;;
72949;SDS011;64868;45.710;9.590;2023-07-20T00:40:46;10.93;;;5.13;;
72949;SDS011;64868;45.710;9.590;2023-07-20T00:43:16;11.07;;;5.18;;
72949;SDS011;64868;45.710;9.590;2023-07-20T00:45:46;14.90;;;5.68;;
72949;SDS011;64868;45.710;9.590;2023-07-20T00:48:17;11.52;;;5.10;;
72949;SDS011;64868;45.710;9.590;2023-07-20T00:50:44;11.68;;;4.75;;
72949;SDS011;64868;45.710;9.590;2023-07-20T00:53:12;13.27;;;4.95;;
72949;SDS011;64868;45.710;9.590;2023-07-20T00:55:40;13.38;;;5.55;;
72949;SDS011;64868;45.710;9.590;2023-07-20T00:58:10;10.00;;;5.20;;
72949;SDS011;64868;45.710;9.590;2023-07-20T01:00:38;13.88;;;5.40;;
72949;SDS011;64868;45.710;9.590;2023-07-20T01:03:06;11.33;;;5.03;;
72949;SDS011;64868;45.710;9.590;2023-07-20T01:05:48;12.50;;;5.53;;
72949;SDS011;64868;45.710;9.590;2023-07-20T01:08:22;12.75;;;5.03;;
72949;SDS011;64868;45.710;9.590;2023-07-20T01:13:23;13.45;;;4.72;;
72949;SDS011;64868;45.710;9.590;2023-07-20T01:15:53;16.00;;;6.82;;
72949;SDS011;64868;45.710;9.590;2023-07-20T01:18:23;15.13;;;6.85;;
72949;SDS011;64868;45.710;9.590;2023-07-20T01:20:53;12.90;;;6.55;;
72949;SDS011;64868;45.710;9.590;2023-07-20T01:26:21;14.52;;;7.28;;
72949;SDS011;64868;45.710;9.590;2023-07-20T01:28:49;14.20;;;8.07;;
72949;SDS011;64868;45.710;9.590;2023-07-20T01:31:23;15.38;;;7.82;;
72949;SDS011;64868;45.710;9.590;2023-07-20T01:33:52;15.63;;;7.85;;
72949;SDS011;64868;45.710;9.590;2023-07-20T01:36:23;15.15;;;7.63;;
72949;SDS011;64868;45.710;9.590;2023-07-20T01:38:55;18.08;;;8.02;;
72949;SDS011;64868;45.710;9.590;2023-07-20T01:41:24;15.63;;;7.60;;
72949;SDS011;64868;45.710;9.590;2023-07-20T01:43:54;14.95;;;7.07;;
72949;SDS011;64868;45.710;9.590;2023-07-20T01:46:24;18.92;;;8.05;;
72949;SDS011;64868;45.710;9.590;2023-07-20T01:48:54;15.75;;;7.63;;
72949;SDS011;64868;45.710;9.590;2023-07-20T01:51:34;17.15;;;7.65;;
72949;SDS011;64868;45.710;9.590;2023-07-20T01:54:07;15.50;;;7.57;;
72949;SDS011;64868;45.710;9.590;2023-07-20T01:56:37;14.80;;;8.50;;
72949;SDS011;64868;45.710;9.590;2023-07-20T01:59:05;15.73;;;7.18;;
72949;SDS011;64868;45.710;9.590;2023-07-20T02:01:32;13.90;;;7.15;;
72949;SDS011;64868;45.710;9.590;2023-07-20T02:04:03;15.82;;;7.53;;
72949;SDS011;64868;45.710;9.590;2023-07-20T02:06:33;17.50;;;7.72;;
72949;SDS011;64868;45.710;9.590;2023-07-20T02:09:03;18.17;;;7.85;;
72949;SDS011;64868;45.710;9.590;2023-07-20T02:11:33;15.13;;;7.30;;
72949;SDS011;64868;45.710;9.590;2023-07-20T02:14:00;13.38;;;7.38;;
72949;SDS011;64868;45.710;9.590;2023-07-20T02:16:28;18.25;;;8.57;;
72949;SDS011;64868;45.710;9.590;2023-07-20T02:18:58;15.13;;;7.43;;
72949;SDS011;64868;45.710;9.590;2023-07-20T02:21:26;14.27;;;7.50;;
72949;SDS011;64868;45.710;9.590;2023-07-20T02:23:54;14.00;;;7.57;;
72949;SDS011;64868;45.710;9.590;2023-07-20T02:26:19;13.20;;;7.07;;
72949;SDS011;64868;45.710;9.590;2023-07-20T02:28:49;15.43;;;7.70;;
72949;SDS011;64868;45.710;9.590;2023-07-20T02:31:19;16.10;;;7.38;;
72949;SDS011;64868;45.710;9.590;2023-07-20T02:33:49;13.05;;;7.15;;
72949;SDS011;64868;45.710;9.590;2023-07-20T02:36:17;15.48;;;7.53;;
72949;SDS011;64868;45.710;9.590;2023-07-20T02:38:47;14.32;;;7.45;;
72949;SDS011;64868;45.710;9.590;2023-07-20T02:41:17;16.50;;;7.50;;
72949;SDS011;64868;45.710;9.590;2023-07-20T02:43:47;15.20;;;8.35;;
72949;SDS011;64868;45.710;9.590;2023-07-20T02:46:17;14.95;;;7.20;;
72949;SDS011;64868;45.710;9.590;2023-07-20T02:48:44;16.08;;;7.40;;
72949;SDS011;64868;45.710;9.590;2023-07-20T02:51:15;13.25;;;7.55;;
72949;SDS011;64868;45.710;9.590;2023-07-20T02:53:45;17.30;;;7.53;;
72949;SDS011;64868;45.710;9.590;2023-07-20T02:56:15;15.95;;;7.28;;
72949;SDS011;64868;45.710;9.590;2023-07-20T02:58:45;15.65;;;7.55;;
72949;SDS011;64868;45.710;9.590;2023-07-20T03:01:16;16.08;;;7.63;;
72949;SDS011;64868;45.710;9.590;2023-07-20T03:03:42;15.32;;;7.20;;
72949;SDS011;64868;45.710;9.590;2023-07-20T03:06:13;15.77;;;7.85;;
72949;SDS011;64868;45.710;9.590;2023-07-20T03:08:44;16.13;;;6.72;;
72949;SDS011;64868;45.710;9.590;2023-07-20T03:11:13;13.15;;;7.22;;
72949;SDS011;64868;45.710;9.590;2023-07-20T03:13:42;16.23;;;7.25;;
72949;SDS011;64868;45.710;9.590;2023-07-20T03:16:15;14.32;;;6.95;;
72949;SDS011;64868;45.710;9.590;2023-07-20T03:18:45;15.18;;;6.93;;
72949;SDS011;64868;45.710;9.590;2023-07-20T03:21:15;17.17;;;7.05;;
72949;SDS011;64868;45.710;9.590;2023-07-20T03:23:45;15.10;;;6.97;;
72949;SDS011;64868;45.710;9.590;2023-07-20T03:26:15;12.25;;;7.28;;
72949;SDS011;64868;45.710;9.590;2023-07-20T03:28:45;17.23;;;7.40;;
72949;SDS011;64868;45.710;9.590;2023-07-20T03:31:13;14.38;;;6.72;;
72949;SDS011;64868;45.710;9.590;2023-07-20T03:33:43;13.07;;;7.22;;
72949;SDS011;64868;45.710;9.590;2023-07-20T03:36:13;15.75;;;7.28;;
72949;SDS011;64868;45.710;9.590;2023-07-20T03:38:43;14.65;;;6.90;;
72949;SDS011;64868;45.710;9.590;2023-07-20T03:41:13;15.80;;;7.63;;
72949;SDS011;64868;45.710;9.590;2023-07-20T03:43:43;16.27;;;7.05;;
72949;SDS011;64868;45.710;9.590;2023-07-20T03:46:13;14.60;;;6.90;;
72949;SDS011;64868;45.710;9.590;2023-07-20T03:48:43;12.35;;;7.30;;
72949;SDS011;64868;45.710;9.590;2023-07-20T03:51:13;12.20;;;6.78;;
72949;SDS011;64868;45.710;9.590;2023-07-20T03:53:43;13.43;;;7.13;;
72949;SDS011;64868;45.710;9.590;2023-07-20T03:56:13;17.27;;;7.28;;
72949;SDS011;64868;45.710;9.590;2023-07-20T03:58:43;10.82;;;6.22;;
72949;SDS011;64868;45.710;9.590;2023-07-20T04:01:14;13.43;;;6.40;;
72949;SDS011;64868;45.710;9.590;2023-07-20T04:03:44;19.15;;;6.97;;
72949;SDS011;64868;45.710;9.590;2023-07-20T04:06:14;12.70;;;6.53;;
72949;SDS011;64868;45.710;9.590;2023-07-20T04:08:44;15.32;;;6.40;;
72949;SDS011;64868;45.710;9.590;2023-07-20T04:11:14;12.65;;;6.20;;
72949;SDS011;64868;45.710;9.590;2023-07-20T04:13:44;11.77;;;6.07;;
72949;SDS011;64868;45.710;9.590;2023-07-20T04:16:14;18.30;;;6.78;;
72949;SDS011;64868;45.710;9.590;2023-07-20T04:18:44;14.00;;;6.82;;
72949;SDS011;64868;45.710;9.590;2023-07-20T04:21:14;16.33;;;7.03;;
72949;SDS011;64868;45.710;9.590;2023-07-20T04:23:45;12.15;;;6.65;;
72949;SDS011;64868;45.710;9.590;2023-07-20T04:26:14;12.95;;;6.57;;
72949;SDS011;64868;45.710;9.590;2023-07-20T04:28:45;13.10;;;6.50;;
72949;SDS011;64868;45.710;9.590;2023-07-20T04:31:15;12.15;;;6.70;;
72949;SDS011;64868;45.710;9.590;2023-07-20T04:33:45;16.35;;;6.45;;
72949;SDS011;64868;45.710;9.590;2023-07-20T04:36:13;11.52;;;6.40;;
72949;SDS011;64868;45.710;9.590;2023-07-20T04:38:43;15.23;;;6.15;;
72949;SDS011;64868;45.710;9.590;2023-07-20T04:41:13;15.98;;;6.85;;
72949;SDS011;64868;45.710;9.590;2023-07-20T04:43:44;15.52;;;6.13;;
72949;SDS011;64868;45.710;9.590;2023-07-20T04:46:14;17.45;;;7.40;;
72949;SDS011;64868;45.710;9.590;2023-07-20T04:48:45;13.25;;;5.70;;
72949;SDS011;64868;45.710;9.590;2023-07-20T04:51:10;14.95;;;6.20;;
72949;SDS011;64868;45.710;9.590;2023-07-20T04:53:40;14.27;;;6.43;;
72949;SDS011;64868;45.710;9.590;2023-07-20T04:56:10;12.90;;;5.78;;
72949;SDS011;64868;45.710;9.590;2023-07-20T04:58:40;14.50;;;5.97;;
72949;SDS011;64868;45.710;9.590;2023-07-20T05:01:10;14.35;;;6.50;;
72949;SDS011;64868;45.710;9.590;2023-07-20T05:03:40;15.05;;;6.75;;
72949;SDS011;64868;45.710;9.590;2023-07-20T05:06:10;16.00;;;6.25;;
72949;SDS011;64868;45.710;9.590;2023-07-20T05:08:41;16.50;;;6.45;;
72949;SDS011;64868;45.710;9.590;2023-07-20T05:11:10;19.23;;;5.88;;
72949;SDS011;64868;45.710;9.590;2023-07-20T05:13:40;12.80;;;5.90;;
72949;SDS011;64868;45.710;9.590;2023-07-20T05:16:11;12.07;;;5.95;;
72949;SDS011;64868;45.710;9.590;2023-07-20T05:18:41;14.75;;;6.10;;
72949;SDS011;64868;45.710;9.590;2023-07-20T05:21:08;14.45;;;6.32;;
72949;SDS011;64868;45.710;9.590;2023-07-20T05:23:36;15.67;;;6.33;;
72949;SDS011;64868;45.710;9.590;2023-07-20T05:26:06;11.82;;;5.57;;
72949;SDS011;64868;45.710;9.590;2023-07-20T05:28:36;11.10;;;5.68;;
72949;SDS011;64868;45.710;9.590;2023-07-20T05:31:04;12.43;;;5.93;;
72949;SDS011;64868;45.710;9.590;2023-07-20T05:33:34;10.77;;;4.93;;
72949;SDS011;64868;45.710;9.590;2023-07-20T05:36:02;13.50;;;6.78;;
72949;SDS011;64868;45.710;9.590;2023-07-20T05:38:32;14.82;;;5.80;;
72949;SDS011;64868;45.710;9.590;2023-07-20T05:41:02;22.42;;;5.70;;
72949;SDS011;64868;45.710;9.590;2023-07-20T05:43:32;14.05;;;5.93;;
72949;SDS011;64868;45.710;9.590;2023-07-20T05:46:02;14.85;;;5.97;;
72949;SDS011;64868;45.710;9.590;2023-07-20T05:48:32;11.45;;;5.95;;
72949;SDS011;64868;45.710;9.590;2023-07-20T05:51:02;12.80;;;5.50;;
72949;SDS011;64868;45.710;9.590;2023-07-20T05:53:30;12.00;;;5.40;;
72949;SDS011;64868;45.710;9.590;2023-07-20T05:56:00;14.13;;;5.13;;
72949;SDS011;64868;45.710;9.590;2023-07-20T05:58:31;13.82;;;6.22;;
72949;SDS011;64868;45.710;9.590;2023-07-20T06:01:01;22.60;;;6.28;;
72949;SDS011;64868;45.710;9.590;2023-07-20T06:03:31;15.80;;;5.70;;
72949;SDS011;64868;45.710;9.590;2023-07-20T06:06:01;15.40;;;5.68;;
72949;SDS011;64868;45.710;9.590;2023-07-20T06:08:31;12.20;;;5.30;;
72949;SDS011;64868;45.710;9.590;2023-07-20T06:11:01;16.52;;;5.60;;
72949;SDS011;64868;45.710;9.590;2023-07-20T06:13:31;19.55;;;5.72;;
72949;SDS011;64868;45.710;9.590;2023-07-20T06:15:59;17.20;;;5.63;;
72949;SDS011;64868;45.710;9.590;2023-07-20T06:18:29;14.93;;;6.18;;
72949;SDS011;64868;45.710;9.590;2023-07-20T06:20:56;12.60;;;5.43;;
72949;SDS011;64868;45.710;9.590;2023-07-20T06:23:24;15.43;;;5.30;;
72949;SDS011;64868;45.710;9.590;2023-07-20T06:25:52;11.25;;;5.07;;
72949;SDS011;64868;45.710;9.590;2023-07-20T06:28:22;14.75;;;5.05;;
72949;SDS011;64868;45.710;9.590;2023-07-20T06:30:50;16.67;;;6.05;;
72949;SDS011;64868;45.710;9.590;2023-07-20T06:33:20;12.85;;;5.40;;
72949;SDS011;64868;45.710;9.590;2023-07-20T06:35:50;11.23;;;5.30;;
72949;SDS011;64868;45.710;9.590;2023-07-20T06:38:20;12.23;;;4.88;;
72949;SDS011;64868;45.710;9.590;2023-07-20T06:40:50;13.82;;;5.03;;
72949;SDS011;64868;45.710;9.590;2023-07-20T06:43:20;11.50;;;4.25;;
72949;SDS011;64868;45.710;9.590;2023-07-20T06:45:56;11.45;;;4.95;;
72949;SDS011;64868;45.710;9.590;2023-07-20T06:48:26;10.48;;;4.68;;
72949;SDS011;64868;45.710;9.590;2023-07-20T06:50:57;13.48;;;5.00;;
72949;SDS011;64868;45.710;9.590;2023-07-20T06:53:24;11.75;;;5.00;;
72949;SDS011;64868;45.710;9.590;2023-07-20T06:55:54;10.90;;;4.65;;
72949;SDS011;64868;45.710;9.590;2023-07-20T06:58:24;13.85;;;5.00;;
72949;SDS011;64868;45.710;9.590;2023-07-20T07:00:54;10.40;;;4.90;;
72949;SDS011;64868;45.710;9.590;2023-07-20T07:03:24;11.68;;;5.47;;
72949;SDS011;64868;45.710;9.590;2023-07-20T07:05:55;10.27;;;4.82;;
72949;SDS011;64868;45.710;9.590;2023-07-20T07:08:24;15.77;;;6.53;;
72949;SDS011;64868;45.710;9.590;2023-07-20T07:10:55;12.75;;;5.28;;
72949;SDS011;64868;45.710;9.590;2023-07-20T07:13:25;14.30;;;4.72;;
72949;SDS011;64868;45.710;9.590;2023-07-20T07:15:55;11.57;;;4.82;;
72949;SDS011;64868;45.710;9.590;2023-07-20T07:18:25;13.15;;;5.05;;
72949;SDS011;64868;45.710;9.590;2023-07-20T07:20:55;12.38;;;4.93;;
72949;SDS011;64868;45.710;9.590;2023-07-20T07:23:25;8.65;;;4.50;;
72949;SDS011;64868;45.710;9.590;2023-07-20T07:25:55;11.88;;;4.82;;
72949;SDS011;64868;45.710;9.590;2023-07-20T07:28:25;11.50;;;4.00;;
72949;SDS011;64868;45.710;9.590;2023-07-20T07:30:54;11.73;;;4.72;;
72949;SDS011;64868;45.710;9.590;2023-07-20T07:33:22;11.48;;;4.50;;
72949;SDS011;64868;45.710;9.590;2023-07-20T07:35:52;12.45;;;5.43;;
72949;SDS011;64868;45.710;9.590;2023-07-20T07:38:22;16.10;;;4.82;;
72949;SDS011;64868;45.710;9.590;2023-07-20T07:40:52;10.18;;;4.65;;
72949;SDS011;64868;45.710;9.590;2023-07-20T07:43:20;11.73;;;4.78;;
72949;SDS011;64868;45.710;9.590;2023-07-20T07:45:50;10.57;;;4.50;;
72949;SDS011;64868;45.710;9.590;2023-07-20T07:48:17;12.77;;;5.50;;
72949;SDS011;64868;45.710;9.590;2023-07-20T07:50:47;13.43;;;5.03;;
72949;SDS011;64868;45.710;9.590;2023-07-20T07:53:17;13.32;;;5.32;;
72949;SDS011;64868;45.710;9.590;2023-07-20T07:55:47;12.77;;;4.93;;
72949;SDS011;64868;45.710;9.590;2023-07-20T07:58:18;11.23;;;4.88;;
72949;SDS011;64868;45.710;9.590;2023-07-20T08:00:45;10.73;;;4.63;;
72949;SDS011;64868;45.710;9.590;2023-07-20T08:03:15;11.27;;;5.38;;
72949;SDS011;64868;45.710;9.590;2023-07-20T08:05:46;10.93;;;4.63;;
72949;SDS011;64868;45.710;9.590;2023-07-20T08:08:13;10.18;;;4.55;;
72949;SDS011;64868;45.710;9.590;2023-07-20T08:10:41;14.73;;;5.35;;
72949;SDS011;64868;45.710;9.590;2023-07-20T08:13:11;10.75;;;4.55;;
72949;SDS011;64868;45.710;9.590;2023-07-20T08:15:38;9.75;;;4.47;;
72949;SDS011;64868;45.710;9.590;2023-07-20T08:18:08;14.85;;;5.10;;
72949;SDS011;64868;45.710;9.590;2023-07-20T08:20:38;10.75;;;4.70;;
72949;SDS011;64868;45.710;9.590;2023-07-20T08:23:08;12.15;;;5.05;;
72949;SDS011;64868;45.710;9.590;2023-07-20T08:25:39;11.98;;;5.07;;
72949;SDS011;64868;45.710;9.590;2023-07-20T08:28:09;10.02;;;4.50;;
72949;SDS011;64868;45.710;9.590;2023-07-20T08:30:44;11.13;;;4.63;;
72949;SDS011;64868;45.710;9.590;2023-07-20T08:33:16;15.27;;;5.40;;
72949;SDS011;64868;45.710;9.590;2023-07-20T08:35:46;10.88;;;4.68;;
72949;SDS011;64868;45.710;9.590;2023-07-20T08:38:14;13.68;;;6.05;;
72949;SDS011;64868;45.710;9.590;2023-07-20T08:40:42;13.82;;;5.90;;
72949;SDS011;64868;45.710;9.590;2023-07-20T08:43:08;17.65;;;6.32;;
72949;SDS011;64868;45.710;9.590;2023-07-20T08:45:33;17.90;;;7.20;;
72949;SDS011;64868;45.710;9.590;2023-07-20T08:48:01;15.25;;;7.82;;
72949;SDS011;64868;45.710;9.590;2023-07-20T08:50:30;17.27;;;6.25;;
72949;SDS011;64868;45.710;9.590;2023-07-20T08:53:00;14.80;;;5.93;;
72949;SDS011;64868;45.710;9.590;2023-07-20T08:55:30;11.45;;;5.75;;
72949;SDS011;64868;45.710;9.590;2023-07-20T08:58:00;9.80;;;5.03;;
72949;SDS011;64868;45.710;9.590;2023-07-20T09:00:30;13.00;;;5.50;;
72949;SDS011;64868;45.710;9.590;2023-07-20T09:03:00;14.90;;;5.10;;
72949;SDS011;64868;45.710;9.590;2023-07-20T09:05:31;12.75;;;4.90;;
72949;SDS011;64868;45.710;9.590;2023-07-20T09:08:01;12.38;;;5.60;;
72949;SDS011;64868;45.710;9.590;2023-07-20T09:10:31;10.93;;;4.95;;
72949;SDS011;64868;45.710;9.590;2023-07-20T09:13:01;16.88;;;5.47;;
72949;SDS011;64868;45.710;9.590;2023-07-20T09:15:32;13.20;;;5.22;;
72949;SDS011;64868;45.710;9.590;2023-07-20T09:18:02;11.05;;;5.15;;
72949;SDS011;64868;45.710;9.590;2023-07-20T09:20:31;14.77;;;5.70;;
72949;SDS011;64868;45.710;9.590;2023-07-20T09:22:56;11.93;;;5.28;;
72949;SDS011;64868;45.710;9.590;2023-07-20T09:25:26;12.90;;;5.20;;
72949;SDS011;64868;45.710;9.590;2023-07-20T09:27:56;15.80;;;5.65;;
72949;SDS011;64868;45.710;9.590;2023-07-20T09:30:24;10.85;;;5.47;;
72949;SDS011;64868;45.710;9.590;2023-07-20T09:32:52;13.88;;;5.30;;
72949;SDS011;64868;45.710;9.590;2023-07-20T09:35:22;12.05;;;4.90;;
72949;SDS011;64868;45.710;9.590;2023-07-20T09:38:01;17.15;;;5.43;;
72949;SDS011;64868;45.710;9.590;2023-07-20T09:40:29;12.15;;;5.13;;
72949;SDS011;64868;45.710;9.590;2023-07-20T09:42:58;10.70;;;5.32;;
72949;SDS011;64868;45.710;9.590;2023-07-20T09:45:31;10.52;;;4.82;;
72949;SDS011;64868;45.710;9.590;2023-07-20T09:48:06;11.38;;;4.60;;
72949;SDS011;64868;45.710;9.590;2023-07-20T09:50:48;10.40;;;4.82;;
72949;SDS011;64868;45.710;9.590;2023-07-20T09:53:16;16.30;;;5.78;;
72949;SDS011;64868;45.710;9.590;2023-07-20T09:55:44;12.63;;;5.25;;
72949;SDS011;64868;45.710;9.590;2023-07-20T09:58:14;12.10;;;5.63;;
72949;SDS011;64868;45.710;9.590;2023-07-20T10:00:41;17.58;;;5.95;;
72949;SDS011;64868;45.710;9.590;2023-07-20T10:03:17;14.73;;;5.30;;
72949;SDS011;64868;45.710;9.590;2023-07-20T10:05:47;9.50;;;4.65;;
72949;SDS011;64868;45.710;9.590;2023-07-20T10:08:15;13.73;;;5.35;;
72949;SDS011;64868;45.710;9.590;2023-07-20T10:10:47;13.27;;;5.47;;
72949;SDS011;64868;45.710;9.590;2023-07-20T10:13:20;14.43;;;5.32;;
72949;SDS011;64868;45.710;9.590;2023-07-20T10:16:10;12.57;;;5.35;;
72949;SDS011;64868;45.710;9.590;2023-07-20T10:21:12;11.48;;;5.60;;
72949;SDS011;64868;45.710;9.590;2023-07-20T10:23:42;11.30;;;5.38;;
72949;SDS011;64868;45.710;9.590;2023-07-20T10:26:12;13.95;;;5.95;;
72949;SDS011;64868;45.710;9.590;2023-07-20T10:28:40;11.20;;;5.97;;
72949;SDS011;64868;45.710;9.590;2023-07-20T10:31:11;12.32;;;5.82;;
72949;SDS011;64868;45.710;9.590;2023-07-20T10:33:41;12.65;;;6.03;;
72949;SDS011;64868;45.710;9.590;2023-07-20T10:36:09;15.93;;;6.55;;
72949;SDS011;64868;45.710;9.590;2023-07-20T10:38:58;14.32;;;6.20;;
72949;SDS011;64868;45.710;9.590;2023-07-20T10:41:27;15.60;;;6.70;;
72949;SDS011;64868;45.710;9.590;2023-07-20T10:44:00;12.82;;;5.57;;
72949;SDS011;64868;45.710;9.590;2023-07-20T10:46:44;11.05;;;6.05;;
72949;SDS011;64868;45.710;9.590;2023-07-20T10:49:12;14.73;;;6.68;;
72949;SDS011;64868;45.710;9.590;2023-07-20T10:51:42;12.10;;;5.75;;
72949;SDS011;64868;45.710;9.590;2023-07-20T10:56:49;14.98;;;6.97;;
72949;SDS011;64868;45.710;9.590;2023-07-20T10:59:35;13.73;;;6.22;;
72949;SDS011;64868;45.710;9.590;2023-07-20T11:02:08;11.05;;;6.25;;
72949;SDS011;64868;45.710;9.590;2023-07-20T11:04:45;13.43;;;6.95;;
72949;SDS011;64868;45.710;9.590;2023-07-20T11:07:20;15.38;;;6.65;;
72949;SDS011;64868;45.710;9.590;2023-07-20T11:10:12;17.27;;;6.70;;
72949;SDS011;64868;45.710;9.590;2023-07-20T11:12:42;13.00;;;6.10;;
72949;SDS011;64868;45.710;9.590;2023-07-20T11:15:29;10.38;;;5.03;;
72949;SDS011;64868;45.710;9.590;2023-07-20T11:18:14;12.38;;;5.82;;
72949;SDS011;64868;45.710;9.590;2023-07-20T11:20:41;16.88;;;6.30;;
72949;SDS011;64868;45.710;9.590;2023-07-20T11:23:12;12.10;;;6.60;;
72949;SDS011;64868;45.710;9.590;2023-07-20T11:25:42;15.43;;;6.80;;
72949;SDS011;64868;45.710;9.590;2023-07-20T11:28:13;14.27;;;6.88;;
72949;SDS011;64868;45.710;9.590;2023-07-20T11:30:43;13.20;;;5.80;;
72949;SDS011;64868;45.710;9.590;2023-07-20T11:33:13;11.68;;;6.28;;
72949;SDS011;64868;45.710;9.590;2023-07-20T11:35:46;12.45;;;5.45;;
72949;SDS011;64868;45.710;9.590;2023-07-20T11:38:14;12.93;;;5.60;;
72949;SDS011;64868;45.710;9.590;2023-07-20T11:40:44;14.07;;;5.88;;
72949;SDS011;64868;45.710;9.590;2023-07-20T11:43:13;15.88;;;6.18;;
72949;SDS011;64868;45.710;9.590;2023-07-20T11:45:43;12.57;;;5.40;;
72949;SDS011;64868;45.710;9.590;2023-07-20T11:48:20;14.15;;;6.53;;
72949;SDS011;64868;45.710;9.590;2023-07-20T11:50:47;13.35;;;5.72;;
72949;SDS011;64868;45.710;9.590;2023-07-20T11:53:17;10.05;;;5.75;;
72949;SDS011;64868;45.710;9.590;2023-07-20T11:55:48;12.77;;;6.22;;
72949;SDS011;64868;45.710;9.590;2023-07-20T11:58:18;11.77;;;6.32;;
72949;SDS011;64868;45.710;9.590;2023-07-20T12:00:48;12.55;;;6.25;;
72949;SDS011;64868;45.710;9.590;2023-07-20T12:03:16;14.25;;;7.03;;
72949;SDS011;64868;45.710;9.590;2023-07-20T12:05:47;15.15;;;6.68;;
72949;SDS011;64868;45.710;9.590;2023-07-20T12:08:17;11.95;;;5.70;;
72949;SDS011;64868;45.710;9.590;2023-07-20T12:10:48;10.15;;;5.57;;
72949;SDS011;64868;45.710;9.590;2023-07-20T12:13:19;12.15;;;6.70;;
72949;SDS011;64868;45.710;9.590;2023-07-20T12:15:46;13.68;;;5.90;;
72949;SDS011;64868;45.710;9.590;2023-07-20T12:20:37;13.02;;;5.93;;
72949;SDS011;64868;45.710;9.590;2023-07-20T12:25:44;12.50;;;5.95;;
72949;SDS011;64868;45.710;9.590;2023-07-20T12:28:12;15.95;;;6.32;;
72949;SDS011;64868;45.710;9.590;2023-07-20T12:30:43;11.95;;;6.53;;
72949;SDS011;64868;45.710;9.590;2023-07-20T12:33:13;12.82;;;6.63;;
72949;SDS011;64868;45.710;9.590;2023-07-20T12:35:47;16.85;;;6.70;;
72949;SDS011;64868;45.710;9.590;2023-07-20T12:38:16;15.57;;;6.28;;
72949;SDS011;64868;45.710;9.590;2023-07-20T12:40:47;13.48;;;5.72;;
72949;SDS011;64868;45.710;9.590;2023-07-20T12:45:42;12.48;;;5.93;;
72949;SDS011;64868;45.710;9.590;2023-07-20T12:48:12;12.85;;;6.43;;
72949;SDS011;64868;45.710;9.590;2023-07-20T12:50:42;10.75;;;6.10;;
72949;SDS011;64868;45.710;9.590;2023-07-20T12:53:09;13.63;;;5.90;;
72949;SDS011;64868;45.710;9.590;2023-07-20T12:55:37;14.13;;;7.25;;
72949;SDS011;64868;45.710;9.590;2023-07-20T12:58:05;12.85;;;6.47;;
72949;SDS011;64868;45.710;9.590;2023-07-20T13:00:35;12.35;;;6.20;;
72949;SDS011;64868;45.710;9.590;2023-07-20T13:03:03;15.68;;;6.57;;
72949;SDS011;64868;45.710;9.590;2023-07-20T13:05:30;12.45;;;6.45;;
72949;SDS011;64868;45.710;9.590;2023-07-20T13:08:00;13.98;;;7.03;;
72949;SDS011;64868;45.710;9.590;2023-07-20T13:10:27;13.00;;;5.57;;
72949;SDS011;64868;45.710;9.590;2023-07-20T13:12:56;12.98;;;6.70;;
72949;SDS011;64868;45.710;9.590;2023-07-20T13:15:27;13.93;;;6.75;;
72949;SDS011;64868;45.710;9.590;2023-07-20T13:17:58;13.80;;;6.63;;
72949;SDS011;64868;45.710;9.590;2023-07-20T13:20:28;13.82;;;6.63;;
72949;SDS011;64868;45.710;9.590;2023-07-20T13:22:58;15.75;;;5.45;;
72949;SDS011;64868;45.710;9.590;2023-07-20T13:25:26;13.18;;;6.50;;
72949;SDS011;64868;45.710;9.590;2023-07-20T13:27:56;13.85;;;6.30;;
72949;SDS011;64868;45.710;9.590;2023-07-20T13:32:51;23.65;;;7.25;;
72949;SDS011;64868;45.710;9.590;2023-07-20T13:35:21;13.32;;;6.05;;
72949;SDS011;64868;45.710;9.590;2023-07-20T13:37:49;15.73;;;6.10;;
72949;SDS011;64868;45.710;9.590;2023-07-20T13:40:19;17.38;;;5.95;;
72949;SDS011;64868;45.710;9.590;2023-07-20T13:45:14;13.00;;;5.85;;
72949;SDS011;64868;45.710;9.590;2023-07-20T13:47:45;14.30;;;6.55;;
72949;SDS011;64868;45.710;9.590;2023-07-20T13:50:12;12.13;;;6.28;;
72949;SDS011;64868;45.710;9.590;2023-07-20T13:52:42;13.57;;;6.95;;
72949;SDS011;64868;45.710;9.590;2023-07-20T13:55:12;15.05;;;6.63;;
72949;SDS011;64868;45.710;9.590;2023-07-20T13:57:38;15.95;;;6.53;;
72949;SDS011;64868;45.710;9.590;2023-07-20T14:00:06;13.73;;;6.38;;
72949;SDS011;64868;45.710;9.590;2023-07-20T14:02:33;15.20;;;7.30;;
72949;SDS011;64868;45.710;9.590;2023-07-20T14:05:03;13.45;;;6.10;;
72949;SDS011;64868;45.710;9.590;2023-07-20T14:07:33;14.40;;;6.15;;
72949;SDS011;64868;45.710;9.590;2023-07-20T14:10:03;13.52;;;6.95;;
72949;SDS011;64868;45.710;9.590;2023-07-20T14:12:33;13.75;;;6.07;;
72949;SDS011;64868;45.710;9.590;2023-07-20T14:15:01;17.35;;;6.40;;
72949;SDS011;64868;45.710;9.590;2023-07-20T14:17:32;14.27;;;6.28;;
72949;SDS011;64868;45.710;9.590;2023-07-20T14:20:00;13.07;;;5.75;;
72949;SDS011;64868;45.710;9.590;2023-07-20T14:24:58;13.95;;;6.03;;
72949;SDS011;64868;45.710;9.590;2023-07-20T14:27:28;15.60;;;6.10;;
72949;SDS011;64868;45.710;9.590;2023-07-20T14:29:58;11.32;;;5.45;;
72949;SDS011;64868;45.710;9.590;2023-07-20T14:32:28;16.33;;;6.15;;
72949;SDS011;64868;45.710;9.590;2023-07-20T14:34:58;13.68;;;5.82;;
72949;SDS011;64868;45.710;9.590;2023-07-20T14:37:28;12.88;;;5.45;;
72949;SDS011;64868;45.710;9.590;2023-07-20T14:39:59;14.20;;;5.07;;
72949;SDS011;64868;45.710;9.590;2023-07-20T14:42:29;13.88;;;5.50;;
72949;SDS011;64868;45.710;9.590;2023-07-20T14:44:59;13.05;;;5.53;;
72949;SDS011;64868;45.710;9.590;2023-07-20T14:47:30;12.88;;;5.25;;
72949;SDS011;64868;45.710;9.590;2023-07-20T14:49:57;12.15;;;5.68;;
72949;SDS011;64868;45.710;9.590;2023-07-20T14:52:22;10.68;;;5.15;;
72949;SDS011;64868;45.710;9.590;2023-07-20T14:54:52;12.23;;;5.25;;
72949;SDS011;64868;45.710;9.590;2023-07-20T14:57:20;13.45;;;5.38;;
72949;SDS011;64868;45.710;9.590;2023-07-20T14:59:47;11.43;;;5.00;;
72949;SDS011;64868;45.710;9.590;2023-07-20T15:02:17;13.07;;;5.22;;
72949;SDS011;64868;45.710;9.590;2023-07-20T15:04:47;14.38;;;5.90;;
72949;SDS011;64868;45.710;9.590;2023-07-20T15:07:20;11.25;;;5.15;;
72949;SDS011;64868;45.710;9.590;2023-07-20T15:09:54;8.85;;;4.85;;
72949;SDS011;64868;45.710;9.590;2023-07-20T15:12:24;10.60;;;4.82;;
72949;SDS011;64868;45.710;9.590;2023-07-20T15:17:34;11.68;;;5.15;;
72949;SDS011;64868;45.710;9.590;2023-07-20T15:20:04;11.68;;;4.97;;